TAF MRPV
MRPV 280500Z 2806/2906 08013KT 9999 FEW030 SCT080 TX25/2817Z TN17/2810Z TEMPO 2806/2813 15008KT TEMPO 2822/2906 DZ BKN020=
METAR MRPV
MRPV 272300Z 10011KT 9999 FEW030 SCT090 21/16 A2998 NOSIG=
MRPV 272200Z 08012KT 9999 FEW020 BKN100 22/16 A2997 NOSIG=
MRPV 272100Z 08010KT 9999 FEW020 BKN090 22/16 A2998 NOSIG=
MRPV 272000Z 09011KT 9999 FEW040 SCT100 BKN220 24/16 A2998 NOSIG=
MRPV 271800Z 09010KT 9999 SCT035 BKN090 22/15 A3004 NOSIG=
WC MRPV
WS MRPV
WV MRPV